Time;durP1;ratioP1;P1;durP2;ratioP2;P2;SDS_P1;SDS_P2;PMS_P1;PMS_P2;Temp;Humidity;BMP_temperature;BMP_pressure;BME280_temperature;BME280_humidity;BME280_pressure;Samples;Min_cycle;Max_cycle;Signal;HPM_P1;HPM_P2
2023/12/10 00:01:20;;;;;;;0.20;0.20;;;3.70;99.90;;;;;;5022054;28;20187;-88
2023/12/10 00:03:46;;;;;;;0.30;0.30;;;3.70;99.90;;;;;;5030234;28;20190;-88
2023/12/10 00:06:11;;;;;;;0.40;0.40;;;3.70;99.90;;;;;;5029814;28;20190;-87
2023/12/10 00:08:37;;;;;;;0.30;0.30;;;3.70;99.90;;;;;;5009222;28;20186;-88
2023/12/10 00:11:02;;;;;;;0.40;0.40;;;3.70;99.90;;;;;;5030218;28;20231;-88
2023/12/10 00:13:28;;;;;;;0.30;0.30;;;3.70;99.90;;;;;;5015290;28;20195;-89
2023/12/10 00:15:53;;;;;;;0.27;0.27;;;3.70;99.90;;;;;;5020149;28;20701;-88
2023/12/10 00:18:19;;;;;;;0.40;0.40;;;3.70;99.90;;;;;;5037956;28;20191;-89
2023/12/10 00:20:44;;;;;;;0.40;0.40;;;3.70;99.90;;;;;;5013945;28;20191;-88
2023/12/10 00:23:11;;;;;;;0.30;0.30;;;3.70;99.90;;;;;;5018925;28;20656;-89
2023/12/10 00:25:43;;;;;;;0.30;0.30;;;3.70;99.90;;;;;;5026497;28;20195;-89
2023/12/10 00:28:08;;;;;;;0.30;0.30;;;3.70;99.90;;;;;;5029452;28;20989;-89
2023/12/10 00:30:34;;;;;;;0.40;0.40;;;3.70;99.90;;;;;;5028820;28;20484;-88
2023/12/10 00:33:00;;;;;;;0.40;0.40;;;3.70;99.90;;;;;;5024067;28;20179;-87
2023/12/10 00:35:25;;;;;;;0.30;0.30;;;3.60;99.90;;;;;;5023749;28;20534;-90
2023/12/10 00:37:51;;;;;;;0.30;0.30;;;3.60;99.90;;;;;;5013258;28;20175;-87
2023/12/10 00:40:17;;;;;;;0.40;0.40;;;3.60;99.90;;;;;;5021116;28;20227;-88
2023/12/10 00:42:43;;;;;;;0.40;0.40;;;3.60;99.90;;;;;;5030620;28;20739;-89
2023/12/10 00:45:09;;;;;;;0.40;0.40;;;3.60;99.90;;;;;;5015775;28;20195;-88
2023/12/10 00:47:34;;;;;;;0.37;0.37;;;3.60;99.90;;;;;;5031618;28;20987;-89
2023/12/10 00:50:00;;;;;;;0.30;0.30;;;3.60;99.90;;;;;;5029935;28;20460;-89
2023/12/10 00:52:25;;;;;;;0.30;0.30;;;3.60;99.90;;;;;;5019723;28;20179;-88
2023/12/10 00:54:51;;;;;;;0.30;0.30;;;3.60;99.90;;;;;;5028041;28;20190;-89
2023/12/10 00:57:16;;;;;;;0.30;0.30;;;3.50;99.90;;;;;;5005218;28;20214;-88
2023/12/10 00:59:42;;;;;;;0.30;0.30;;;3.50;99.90;;;;;;4999934;28;20191;-88
2023/12/10 01:02:07;;;;;;;0.30;0.30;;;3.50;99.90;;;;;;5019027;28;20187;-88
2023/12/10 01:04:33;;;;;;;0.30;0.30;;;3.50;99.90;;;;;;5032782;28;20574;-88
2023/12/10 01:06:58;;;;;;;0.20;0.20;;;3.60;99.90;;;;;;5007066;28;20792;-88
2023/12/10 01:09:24;;;;;;;0.30;0.30;;;3.50;99.90;;;;;;5024445;28;20285;-89
2023/12/10 01:11:49;;;;;;;0.40;0.40;;;3.50;99.90;;;;;;5031376;28;20222;-88
2023/12/10 01:14:15;;;;;;;0.30;0.30;;;3.50;99.90;;;;;;5022557;28;20599;-88
2023/12/10 01:16:41;;;;;;;0.30;0.30;;;3.50;99.90;;;;;;5012894;28;20187;-87
2023/12/10 01:19:06;;;;;;;0.40;0.40;;;3.50;99.90;;;;;;5021902;28;20232;-88
2023/12/10 01:21:32;;;;;;;0.23;0.23;;;3.50;99.90;;;;;;5035943;28;20205;-88
2023/12/10 01:23:59;;;;;;;0.40;0.40;;;3.50;99.90;;;;;;5019855;28;20180;-88
2023/12/10 01:26:24;;;;;;;0.30;0.30;;;3.50;99.90;;;;;;5041029;28;20710;-88
2023/12/10 01:28:51;;;;;;;0.40;0.40;;;3.50;99.90;;;;;;5019418;28;20571;-88
2023/12/10 01:31:16;;;;;;;0.30;0.30;;;3.50;99.90;;;;;;5033931;28;20268;-89
2023/12/10 01:33:42;;;;;;;0.40;0.40;;;3.50;99.90;;;;;;5036046;28;20557;-88
2023/12/10 01:36:08;;;;;;;0.30;0.30;;;3.40;99.90;;;;;;5053206;28;20191;-88
2023/12/10 01:38:34;;;;;;;0.30;0.30;;;3.40;99.90;;;;;;5042563;28;20192;-90
2023/12/10 01:40:59;;;;;;;0.30;0.30;;;3.50;99.90;;;;;;5048591;28;20186;-89
2023/12/10 01:43:25;;;;;;;0.30;0.30;;;3.40;99.90;;;;;;5033419;28;20449;-88
2023/12/10 01:45:53;;;;;;;0.40;0.40;;;3.40;99.90;;;;;;5016807;28;20186;-89
2023/12/10 01:48:23;;;;;;;0.20;0.20;;;3.50;99.90;;;;;;5014331;28;20638;-89
2023/12/10 01:50:50;;;;;;;0.33;0.33;;;3.50;99.90;;;;;;5028625;28;20493;-88
2023/12/10 01:53:16;;;;;;;0.30;0.30;;;3.50;99.90;;;;;;5021465;28;20433;-89
2023/12/10 01:55:42;;;;;;;0.40;0.40;;;3.50;99.90;;;;;;5051890;28;20799;-89
2023/12/10 01:58:09;;;;;;;0.40;0.40;;;3.50;99.90;;;;;;5051668;28;20429;-89
2023/12/10 02:00:35;;;;;;;0.30;0.30;;;3.40;99.90;;;;;;5050133;28;20429;-89
2023/12/10 02:03:02;;;;;;;0.30;0.30;;;3.50;99.90;;;;;;5039040;28;20453;-89
2023/12/10 02:05:28;;;;;;;0.30;0.30;;;3.50;99.90;;;;;;5037995;28;20434;-88
2023/12/10 02:07:54;;;;;;;0.30;0.30;;;3.50;99.90;;;;;;5042631;28;20437;-88
2023/12/10 02:10:19;;;;;;;0.30;0.30;;;3.50;99.90;;;;;;5032811;28;20243;-89
2023/12/10 02:12:47;;;;;;;0.30;0.30;;;3.50;99.90;;;;;;5030148;28;20191;-89
2023/12/10 02:15:20;;;;;;;0.40;0.40;;;3.50;99.90;;;;;;5041882;28;20226;-88
2023/12/10 02:17:46;;;;;;;0.40;0.40;;;3.50;99.90;;;;;;5040139;28;20421;-88
2023/12/10 02:20:12;;;;;;;0.23;0.23;;;3.50;99.90;;;;;;5038239;28;21273;-89
2023/12/10 02:22:45;;;;;;;0.30;0.30;;;3.40;99.90;;;;;;5023603;28;20524;-89
2023/12/10 02:25:13;;;;;;;0.30;0.30;;;3.50;99.90;;;;;;5020295;28;20703;-89
2023/12/10 02:27:38;;;;;;;0.30;0.30;;;3.50;99.90;;;;;;5029054;28;20449;-88
2023/12/10 02:30:05;;;;;;;0.40;0.40;;;3.40;99.90;;;;;;5019886;28;21207;-89
2023/12/10 02:32:30;;;;;;;0.40;0.40;;;3.40;99.90;;;;;;5014200;28;20230;-88
2023/12/10 02:34:56;;;;;;;0.30;0.30;;;3.40;99.90;;;;;;5030468;28;20490;-89
2023/12/10 02:37:21;;;;;;;0.33;0.33;;;3.50;99.90;;;;;;5041313;28;20199;-88
2023/12/10 02:39:47;;;;;;;0.30;0.30;;;3.40;99.90;;;;;;5038638;28;20222;-88
2023/12/10 02:42:12;;;;;;;0.20;0.20;;;3.40;99.90;;;;;;5017363;28;20229;-88
2023/12/10 02:44:38;;;;;;;0.30;0.30;;;3.40;99.90;;;;;;5032900;28;20172;-89
2023/12/10 02:47:03;;;;;;;0.40;0.40;;;3.40;99.90;;;;;;5014122;28;20187;-89
2023/12/10 02:49:29;;;;;;;0.30;0.30;;;3.40;99.90;;;;;;5044253;28;20873;-88
2023/12/10 02:51:54;;;;;;;0.30;0.30;;;3.40;99.90;;;;;;5047666;28;20194;-88
2023/12/10 02:54:20;;;;;;;0.40;0.40;;;3.40;99.90;;;;;;5035396;28;20652;-88
2023/12/10 02:56:45;;;;;;;0.27;0.27;;;3.40;99.90;;;;;;5031229;28;20274;-89
2023/12/10 02:59:11;;;;;;;0.30;0.30;;;3.40;99.90;;;;;;5046568;28;20214;-88
2023/12/10 03:01:36;;;;;;;0.40;0.40;;;3.40;99.90;;;;;;5037898;28;20199;-89
2023/12/10 03:04:02;;;;;;;0.30;0.30;;;3.50;99.90;;;;;;5047013;28;20786;-89
2023/12/10 03:06:27;;;;;;;0.30;0.30;;;3.40;99.90;;;;;;5039966;28;20186;-89
2023/12/10 03:08:53;;;;;;;0.33;0.33;;;3.40;99.90;;;;;;5032417;28;20179;-88
2023/12/10 03:11:18;;;;;;;0.30;0.30;;;3.40;99.90;;;;;;5029342;28;20228;-88
2023/12/10 03:13:44;;;;;;;0.30;0.30;;;3.50;99.90;;;;;;5014030;28;20175;-89
2023/12/10 03:16:09;;;;;;;0.27;0.27;;;3.50;99.90;;;;;;5042461;28;20274;-88
2023/12/10 03:18:35;;;;;;;0.30;0.30;;;3.50;99.90;;;;;;5043295;28;20218;-88
2023/12/10 03:21:00;;;;;;;0.30;0.30;;;3.50;99.90;;;;;;5048218;28;20175;-88
2023/12/10 03:23:26;;;;;;;0.30;0.30;;;3.50;99.90;;;;;;5041234;28;20235;-88
2023/12/10 03:25:51;;;;;;;0.23;0.23;;;3.50;99.90;;;;;;5045941;28;20202;-88
2023/12/10 03:28:17;;;;;;;0.30;0.30;;;3.50;99.90;;;;;;5038030;28;20192;-88
2023/12/10 03:30:42;;;;;;;0.23;0.23;;;3.50;99.90;;;;;;5023516;28;20945;-88
2023/12/10 03:33:08;;;;;;;0.33;0.33;;;3.50;99.90;;;;;;5033381;28;20187;-88
2023/12/10 03:35:33;;;;;;;0.30;0.30;;;3.50;99.90;;;;;;5023945;28;20213;-88
2023/12/10 03:37:59;;;;;;;0.40;0.40;;;3.50;99.90;;;;;;5044573;28;20797;-88
2023/12/10 03:40:24;;;;;;;0.40;0.40;;;3.50;99.90;;;;;;5045914;28;20213;-88
2023/12/10 03:42:50;;;;;;;0.30;0.30;;;3.50;99.90;;;;;;5039364;28;20176;-89
2023/12/10 03:45:15;;;;;;;0.30;0.30;;;3.50;99.90;;;;;;5029913;28;20191;-89
2023/12/10 03:47:46;;;;;;;0.30;0.30;;;3.50;99.90;;;;;;5014631;28;20186;-88
2023/12/10 03:50:15;;;;;;;0.40;0.40;;;3.50;99.90;;;;;;5047707;28;20203;-89
2023/12/10 03:52:41;;;;;;;0.40;0.40;;;3.50;99.90;;;;;;5020835;28;20937;-87
2023/12/10 03:55:07;;;;;;;0.40;0.40;;;3.50;99.90;;;;;;5034610;28;20469;-88
2023/12/10 03:57:33;;;;;;;0.27;0.27;;;3.60;99.90;;;;;;5028886;28;20240;-88
2023/12/10 03:59:58;;;;;;;0.30;0.30;;;3.60;99.90;;;;;;5007913;28;20442;-88
2023/12/10 04:02:24;;;;;;;0.40;0.40;;;3.60;99.90;;;;;;5027999;28;20226;-88
2023/12/10 04:04:49;;;;;;;0.30;0.30;;;3.60;99.90;;;;;;5012726;28;20234;-88
2023/12/10 04:07:15;;;;;;;0.40;0.40;;;3.60;99.90;;;;;;5028822;28;20180;-88
2023/12/10 04:09:41;;;;;;;0.40;0.40;;;3.70;99.90;;;;;;5047039;28;20668;-87
2023/12/10 04:12:06;;;;;;;0.20;0.20;;;3.60;99.90;;;;;;5029842;28;20217;-88
2023/12/10 04:14:32;;;;;;;0.40;0.40;;;3.60;99.90;;;;;;5030291;28;20438;-88
2023/12/10 04:16:57;;;;;;;0.40;0.40;;;3.70;99.90;;;;;;5029331;28;20215;-88
2023/12/10 04:19:23;;;;;;;0.33;0.33;;;3.70;99.90;;;;;;5027005;28;20565;-88
2023/12/10 04:21:48;;;;;;;0.40;0.40;;;3.70;99.90;;;;;;5030821;28;20191;-88
2023/12/10 04:24:15;;;;;;;0.37;0.37;;;3.70;99.90;;;;;;5009139;28;20275;-88
2023/12/10 04:26:41;;;;;;;0.30;0.30;;;3.70;99.90;;;;;;5030583;28;20222;-88
2023/12/10 04:29:06;;;;;;;0.30;0.30;;;3.70;99.90;;;;;;5031270;28;20810;-88
2023/12/10 04:31:32;;;;;;;0.30;0.30;;;3.70;99.90;;;;;;5021328;28;20226;-88
2023/12/10 04:33:57;;;;;;;0.20;0.20;;;3.80;99.90;;;;;;5028165;28;20273;-88
2023/12/10 04:36:23;;;;;;;0.30;0.30;;;3.70;99.90;;;;;;5029417;28;20321;-88
2023/12/10 04:38:49;;;;;;;0.30;0.30;;;3.70;99.90;;;;;;5027866;28;20562;-87
2023/12/10 04:41:14;;;;;;;0.30;0.30;;;3.80;99.90;;;;;;5035694;28;20175;-88
2023/12/10 04:43:40;;;;;;;0.20;0.20;;;3.80;99.90;;;;;;5050012;28;20179;-88
2023/12/10 04:46:05;;;;;;;0.27;0.27;;;3.80;99.90;;;;;;5040566;28;20207;-88
2023/12/10 04:48:31;;;;;;;0.30;0.30;;;3.80;99.90;;;;;;5012591;28;20690;-88
2023/12/10 04:50:57;;;;;;;0.30;0.30;;;3.80;99.90;;;;;;5009419;28;20322;-88
2023/12/10 04:53:22;;;;;;;0.30;0.30;;;3.90;99.90;;;;;;5028714;28;20227;-87
2023/12/10 04:55:48;;;;;;;0.23;0.23;;;3.90;99.90;;;;;;5015049;28;20185;-88
2023/12/10 04:58:13;;;;;;;0.40;0.40;;;3.90;99.90;;;;;;5032055;28;20277;-88
2023/12/10 05:00:39;;;;;;;0.30;0.30;;;3.90;99.90;;;;;;5030714;28;20192;-88
2023/12/10 05:03:06;;;;;;;0.30;0.30;;;3.90;99.90;;;;;;5026916;28;20548;-87
2023/12/10 05:05:31;;;;;;;0.30;0.30;;;3.90;99.90;;;;;;5029586;28;20209;-88
2023/12/10 05:07:57;;;;;;;0.27;0.27;;;3.90;99.90;;;;;;5027428;28;21035;-89
2023/12/10 05:10:23;;;;;;;0.20;0.20;;;3.90;99.90;;;;;;5033086;28;20435;-87
2023/12/10 05:12:48;;;;;;;0.30;0.30;;;3.90;99.90;;;;;;5043013;28;20183;-88
2023/12/10 05:15:15;;;;;;;0.30;0.30;;;4.00;99.90;;;;;;5042211;28;20429;-88
2023/12/10 05:17:41;;;;;;;0.30;0.30;;;4.00;99.90;;;;;;5010894;28;20208;-88
2023/12/10 05:20:07;;;;;;;0.30;0.30;;;4.00;99.90;;;;;;5019772;28;20910;-88
2023/12/10 05:22:33;;;;;;;0.30;0.30;;;4.00;99.90;;;;;;5028006;28;20185;-88
2023/12/10 05:24:58;;;;;;;0.30;0.30;;;4.00;99.90;;;;;;5029451;28;20521;-88
2023/12/10 05:27:24;;;;;;;0.30;0.30;;;4.00;99.90;;;;;;5014792;28;20184;-88
2023/12/10 05:29:50;;;;;;;0.30;0.30;;;4.00;99.90;;;;;;5028768;28;20204;-88
2023/12/10 05:32:15;;;;;;;0.30;0.30;;;4.00;99.90;;;;;;5031425;28;20188;-88
2023/12/10 05:34:41;;;;;;;0.30;0.30;;;4.10;99.90;;;;;;5037354;28;20477;-88
2023/12/10 05:37:07;;;;;;;0.33;0.33;;;4.10;99.90;;;;;;5010875;28;20231;-88
2023/12/10 05:39:33;;;;;;;0.30;0.30;;;4.10;99.90;;;;;;5044031;28;20183;-87
2023/12/10 05:41:58;;;;;;;0.30;0.30;;;4.10;99.90;;;;;;5049792;28;21035;-88
2023/12/10 05:44:24;;;;;;;0.30;0.30;;;4.20;99.90;;;;;;5031175;28;20686;-88
2023/12/10 05:46:49;;;;;;;0.20;0.20;;;4.10;99.90;;;;;;5029397;28;20206;-87
2023/12/10 05:49:15;;;;;;;0.30;0.30;;;4.20;99.90;;;;;;5009058;28;20621;-88
2023/12/10 05:51:40;;;;;;;0.30;0.30;;;4.20;99.90;;;;;;5027228;28;20219;-87
2023/12/10 05:54:06;;;;;;;0.30;0.30;;;4.10;99.90;;;;;;5034092;28;20289;-88
2023/12/10 05:56:34;;;;;;;0.30;0.30;;;4.10;99.90;;;;;;5018810;28;20633;-88
2023/12/10 05:59:01;;;;;;;0.30;0.30;;;4.00;99.90;;;;;;5029558;28;20715;-87
2023/12/10 06:01:27;;;;;;;0.30;0.30;;;4.10;99.90;;;;;;5030878;28;20466;-87
2023/12/10 06:03:52;;;;;;;0.30;0.30;;;4.10;99.90;;;;;;5041168;28;20422;-88
2023/12/10 06:06:19;;;;;;;0.30;0.30;;;3.90;99.90;;;;;;5019202;28;20185;-88
2023/12/10 06:08:44;;;;;;;0.30;0.30;;;4.00;99.90;;;;;;5010808;28;20325;-87
2023/12/10 06:11:10;;;;;;;0.30;0.30;;;4.00;99.90;;;;;;5019914;28;20564;-89
2023/12/10 06:13:35;;;;;;;0.30;0.30;;;4.00;99.90;;;;;;5024541;28;20230;-91
2023/12/10 06:16:01;;;;;;;0.30;0.30;;;4.00;99.90;;;;;;5020755;28;20191;-87
2023/12/10 06:18:26;;;;;;;0.30;0.30;;;4.00;99.90;;;;;;5012906;28;20238;-88
2023/12/10 06:20:52;;;;;;;0.30;0.30;;;4.00;99.90;;;;;;5006126;28;20227;-88
2023/12/10 06:23:17;;;;;;;0.37;0.37;;;4.10;99.90;;;;;;5021896;28;20195;-89
2023/12/10 06:25:43;;;;;;;0.40;0.40;;;4.00;99.90;;;;;;5028659;28;20705;-88
2023/12/10 06:28:08;;;;;;;0.30;0.30;;;4.10;99.90;;;;;;5025496;28;20240;-88
2023/12/10 06:30:34;;;;;;;0.30;0.30;;;4.10;99.90;;;;;;5007019;28;20255;-88
2023/12/10 06:32:59;;;;;;;0.30;0.30;;;4.00;99.90;;;;;;5029705;28;20233;-89
2023/12/10 06:35:25;;;;;;;0.30;0.30;;;4.10;99.90;;;;;;5012228;28;20187;-88
2023/12/10 06:37:50;;;;;;;0.30;0.30;;;4.10;99.90;;;;;;5030189;28;20218;-89
2023/12/10 06:40:16;;;;;;;0.30;0.30;;;4.10;99.90;;;;;;5023169;28;20215;-88
2023/12/10 06:42:43;;;;;;;0.30;0.30;;;4.00;99.90;;;;;;5031538;28;20816;-88
2023/12/10 06:45:10;;;;;;;0.30;0.30;;;4.00;99.90;;;;;;5003265;28;20191;-87
2023/12/10 06:47:36;;;;;;;0.40;0.40;;;4.00;99.90;;;;;;5037815;28;20483;-88
2023/12/10 06:50:01;;;;;;;0.30;0.30;;;4.10;99.90;;;;;;5041100;28;20478;-89
2023/12/10 06:52:27;;;;;;;0.20;0.20;;;4.10;99.90;;;;;;5003038;28;20286;-88
2023/12/10 06:54:52;;;;;;;0.30;0.30;;;4.10;99.90;;;;;;5031951;28;20278;-89
2023/12/10 06:57:18;;;;;;;0.30;0.30;;;4.10;99.90;;;;;;5032225;28;20283;-88
2023/12/10 06:59:43;;;;;;;0.30;0.30;;;4.10;99.90;;;;;;5029922;28;20640;-88
2023/12/10 07:02:09;;;;;;;0.30;0.30;;;4.20;99.90;;;;;;5031681;28;20192;-88
2023/12/10 07:04:35;;;;;;;0.30;0.30;;;4.20;99.90;;;;;;5030856;28;20176;-88
2023/12/10 07:07:01;;;;;;;0.30;0.30;;;4.30;99.90;;;;;;5016919;28;20505;-87
2023/12/10 07:09:27;;;;;;;0.30;0.30;;;4.30;99.90;;;;;;5007131;28;20900;-88
2023/12/10 07:11:52;;;;;;;0.30;0.30;;;4.30;99.90;;;;;;5015776;28;20200;-87
2023/12/10 07:14:21;;;;;;;0.30;0.30;;;4.30;99.90;;;;;;5025125;28;20191;-88
2023/12/10 07:16:47;;;;;;;0.30;0.30;;;4.30;99.90;;;;;;5016288;28;20200;-87
2023/12/10 07:19:12;;;;;;;0.30;0.30;;;4.30;99.90;;;;;;5018513;28;20465;-88
2023/12/10 07:21:38;;;;;;;0.30;0.30;;;4.30;99.90;;;;;;5027715;28;20661;-87
2023/12/10 07:24:04;;;;;;;0.27;0.27;;;4.30;99.90;;;;;;5025664;28;20195;-87
2023/12/10 07:26:30;;;;;;;0.30;0.30;;;4.40;99.90;;;;;;5029480;28;20179;-88
2023/12/10 07:28:55;;;;;;;0.30;0.30;;;4.40;99.90;;;;;;5027990;28;20496;-88
2023/12/10 07:31:21;;;;;;;0.30;0.30;;;4.50;99.90;;;;;;5012500;28;20689;-86
2023/12/10 07:33:47;;;;;;;0.30;0.30;;;4.60;99.90;;;;;;5025912;28;20184;-87
2023/12/10 07:36:12;;;;;;;0.30;0.30;;;4.60;99.90;;;;;;5013070;28;20192;-87
2023/12/10 07:38:38;;;;;;;0.30;0.30;;;4.60;99.90;;;;;;5002878;28;20670;-87
2023/12/10 07:41:04;;;;;;;0.40;0.40;;;4.60;99.90;;;;;;5030449;28;20175;-87
2023/12/10 07:43:30;;;;;;;0.30;0.30;;;4.60;99.90;;;;;;5024910;28;20427;-86
2023/12/10 07:45:56;;;;;;;0.30;0.30;;;4.60;99.90;;;;;;5002117;28;20188;-86
2023/12/10 07:48:22;;;;;;;0.30;0.30;;;4.70;99.90;;;;;;5024422;28;20946;-85
2023/12/10 07:50:47;;;;;;;0.30;0.30;;;4.60;99.90;;;;;;4999358;28;20314;-85
2023/12/10 07:53:13;;;;;;;0.30;0.30;;;4.60;99.90;;;;;;5012847;28;20246;-84
2023/12/10 07:55:38;;;;;;;0.30;0.30;;;4.70;99.90;;;;;;5020334;28;20230;-86
2023/12/10 07:58:04;;;;;;;0.30;0.30;;;4.70;99.90;;;;;;4998997;28;20247;-86
2023/12/10 08:00:29;;;;;;;0.30;0.30;;;4.70;99.90;;;;;;5016802;28;20192;-86
2023/12/10 08:02:55;;;;;;;0.30;0.30;;;4.70;99.90;;;;;;5024496;28;20195;-86
2023/12/10 08:05:21;;;;;;;0.30;0.30;;;4.80;99.90;;;;;;5024936;28;20192;-86
2023/12/10 08:07:46;;;;;;;0.30;0.30;;;4.80;99.90;;;;;;5024345;28;20207;-86
2023/12/10 08:10:13;;;;;;;0.30;0.30;;;4.80;99.90;;;;;;5019731;28;20511;-86
2023/12/10 08:12:38;;;;;;;0.30;0.30;;;4.80;99.90;;;;;;5030515;28;20188;-87
2023/12/10 08:15:05;;;;;;;0.30;0.30;;;4.80;99.90;;;;;;5024596;28;20438;-87
2023/12/10 08:17:31;;;;;;;0.30;0.30;;;4.80;99.90;;;;;;5022696;28;20948;-86
2023/12/10 08:19:57;;;;;;;0.30;0.30;;;4.80;99.90;;;;;;5025845;28;20505;-86
2023/12/10 08:22:22;;;;;;;0.30;0.30;;;4.80;99.90;;;;;;5008699;28;20255;-87
2023/12/10 08:24:48;;;;;;;0.20;0.20;;;4.90;99.90;;;;;;5029292;28;20704;-87
2023/12/10 08:27:13;;;;;;;0.30;0.30;;;4.90;99.90;;;;;;5042165;28;20209;-86
2023/12/10 08:29:39;;;;;;;0.30;0.30;;;5.00;99.90;;;;;;5039482;28;20175;-86
2023/12/10 08:32:05;;;;;;;0.30;0.30;;;4.90;99.90;;;;;;5014826;28;20204;-88
2023/12/10 08:34:30;;;;;;;0.30;0.30;;;4.90;99.90;;;;;;4996241;28;20761;-86
2023/12/10 08:36:56;;;;;;;0.20;0.20;;;4.90;99.90;;;;;;5021674;28;20492;-87
2023/12/10 08:39:21;;;;;;;0.30;0.30;;;4.90;99.90;;;;;;5020697;28;20194;-87
2023/12/10 08:41:47;;;;;;;0.30;0.30;;;5.00;99.90;;;;;;5019567;28;20191;-87
2023/12/10 08:44:12;;;;;;;0.30;0.30;;;5.10;99.90;;;;;;5025401;28;20259;-89
2023/12/10 08:46:38;;;;;;;0.30;0.30;;;5.00;99.90;;;;;;5022252;28;20524;-90
2023/12/10 08:49:04;;;;;;;0.30;0.30;;;5.00;99.90;;;;;;5029420;28;20191;-91
2023/12/10 08:51:29;;;;;;;0.30;0.30;;;5.00;99.90;;;;;;5021116;28;20219;-90
2023/12/10 08:53:55;;;;;;;0.30;0.30;;;5.10;99.90;;;;;;5012098;28;20176;-89
2023/12/10 08:56:21;;;;;;;0.30;0.30;;;5.10;99.90;;;;;;5039621;28;20189;-89
2023/12/10 08:58:46;;;;;;;0.30;0.30;;;5.10;99.90;;;;;;5037724;28;21201;-89
2023/12/10 09:01:12;;;;;;;0.30;0.30;;;5.10;99.90;;;;;;5028444;28;20219;-89
2023/12/10 09:03:42;;;;;;;0.30;0.30;;;5.20;99.90;;;;;;5030114;28;20187;-88
2023/12/10 09:06:09;;;;;;;0.30;0.30;;;5.20;99.90;;;;;;5029831;28;20241;-89
2023/12/10 09:08:35;;;;;;;0.30;0.30;;;5.20;99.90;;;;;;5030310;28;20433;-88
2023/12/10 09:11:03;;;;;;;0.30;0.30;;;5.30;99.90;;;;;;5030295;28;20474;-89
2023/12/10 09:13:30;;;;;;;0.30;0.30;;;5.30;99.90;;;;;;5027964;28;20632;-89
2023/12/10 09:15:55;;;;;;;0.30;0.30;;;5.30;99.90;;;;;;5022928;28;20425;-89
2023/12/10 09:18:21;;;;;;;0.30;0.30;;;5.20;99.90;;;;;;5043901;28;20460;-89
2023/12/10 09:20:47;;;;;;;0.27;0.27;;;5.20;99.90;;;;;;5026038;28;20197;-88
2023/12/10 09:23:12;;;;;;;0.20;0.20;;;5.20;99.90;;;;;;5028696;28;20556;-89
2023/12/10 09:25:37;;;;;;;0.30;0.30;;;5.20;99.90;;;;;;5016594;28;20208;-88
2023/12/10 09:28:03;;;;;;;0.27;0.27;;;5.30;99.90;;;;;;5012743;28;20278;-88
2023/12/10 09:30:28;;;;;;;0.30;0.30;;;5.30;99.90;;;;;;5022161;28;20211;-89
2023/12/10 09:32:54;;;;;;;0.20;0.20;;;5.20;99.90;;;;;;5022108;28;20179;-89
2023/12/10 09:35:19;;;;;;;0.30;0.30;;;5.30;99.90;;;;;;5024323;28;20757;-88
2023/12/10 09:37:45;;;;;;;0.20;0.20;;;5.30;99.90;;;;;;5025498;28;20187;-88
2023/12/10 09:40:10;;;;;;;0.30;0.30;;;5.40;99.90;;;;;;5026606;28;20697;-89
2023/12/10 09:42:36;;;;;;;0.20;0.20;;;5.30;99.90;;;;;;5029591;28;20255;-89
2023/12/10 09:45:02;;;;;;;0.30;0.30;;;5.40;99.90;;;;;;5030282;28;20206;-89
2023/12/10 09:47:29;;;;;;;0.30;0.30;;;5.40;99.90;;;;;;4996639;28;20573;-89
2023/12/10 09:49:57;;;;;;;0.20;0.20;;;5.40;99.90;;;;;;4999985;28;20459;-88
2023/12/10 09:52:23;;;;;;;0.20;0.20;;;5.50;99.90;;;;;;5030968;28;20622;-86
2023/12/10 09:54:52;;;;;;;0.20;0.20;;;5.50;99.90;;;;;;5030059;28;20434;-88
2023/12/10 09:57:20;;;;;;;0.30;0.30;;;5.50;99.90;;;;;;5027753;28;20489;-89
2023/12/10 09:59:46;;;;;;;0.30;0.30;;;5.50;99.90;;;;;;5026946;28;20508;-88
2023/12/10 10:02:12;;;;;;;0.30;0.30;;;5.50;99.90;;;;;;5023047;28;20431;-87
2023/12/10 10:04:41;;;;;;;0.20;0.20;;;5.60;99.90;;;;;;5025698;28;20426;-85
2023/12/10 10:07:07;;;;;;;0.20;0.20;;;5.60;99.90;;;;;;5000986;28;20198;-88
2023/12/10 10:09:36;;;;;;;0.30;0.30;;;5.70;99.90;;;;;;5021650;28;20427;-87
2023/12/10 10:12:02;;;;;;;0.20;0.20;;;5.70;99.90;;;;;;5027049;28;20191;-88
2023/12/10 10:14:28;;;;;;;0.30;0.30;;;5.70;99.90;;;;;;5008391;28;20454;-87
2023/12/10 10:16:54;;;;;;;0.30;0.30;;;5.70;99.90;;;;;;5015505;28;20501;-86
2023/12/10 10:19:19;;;;;;;0.20;0.20;;;5.70;99.90;;;;;;5029162;28;20773;-86
2023/12/10 10:21:46;;;;;;;0.30;0.30;;;5.70;99.90;;;;;;5017573;28;20620;-87
2023/12/10 10:24:12;;;;;;;0.30;0.30;;;5.70;99.90;;;;;;5007198;28;20944;-87
2023/12/10 10:26:38;;;;;;;0.20;0.20;;;5.60;99.90;;;;;;5023173;28;20442;-88
2023/12/10 10:29:05;;;;;;;0.20;0.20;;;5.60;99.90;;;;;;5007015;28;20243;-87
2023/12/10 10:31:34;;;;;;;0.30;0.30;;;5.60;99.90;;;;;;5023529;28;20485;-85
2023/12/10 10:34:04;;;;;;;0.20;0.20;;;5.60;99.90;;;;;;5042200;28;20433;-87
2023/12/10 10:36:32;;;;;;;0.30;0.30;;;5.60;99.90;;;;;;5041664;28;20457;-86
2023/12/10 10:38:58;;;;;;;0.30;0.30;;;5.70;99.90;;;;;;5032359;28;20533;-88
2023/12/10 10:41:25;;;;;;;0.30;0.30;;;5.70;99.90;;;;;;5036021;28;20481;-85
2023/12/10 10:43:50;;;;;;;0.30;0.30;;;5.70;99.90;;;;;;5032304;28;20555;-85
2023/12/10 10:46:20;;;;;;;0.20;0.20;;;5.70;99.90;;;;;;5026690;28;20414;-86
2023/12/10 10:48:51;;;;;;;0.20;0.20;;;5.70;99.90;;;;;;5032060;28;20266;-88
2023/12/10 10:51:23;;;;;;;0.30;0.30;;;5.70;99.90;;;;;;5013957;28;20474;-87
2023/12/10 10:53:51;;;;;;;0.20;0.20;;;5.70;99.90;;;;;;5033490;28;20446;-86
2023/12/10 10:56:17;;;;;;;0.20;0.20;;;5.70;99.90;;;;;;5007178;28;21013;-85
2023/12/10 10:58:43;;;;;;;0.30;0.30;;;5.80;99.90;;;;;;5013697;28;20472;-87
2023/12/10 11:01:44;;;;;;;0.20;0.20;;;5.80;99.90;;;;;;5023447;28;20642;-87
2023/12/10 11:04:14;;;;;;;0.30;0.30;;;5.80;99.90;;;;;;5016238;28;20295;-83
2023/12/10 11:06:41;;;;;;;0.20;0.20;;;5.90;99.90;;;;;;5012980;28;20446;-86
2023/12/10 11:09:07;;;;;;;0.20;0.20;;;5.90;99.90;;;;;;5015155;28;20523;-87
2023/12/10 11:11:39;;;;;;;0.20;0.20;;;5.90;99.90;;;;;;5004395;28;20502;-85
2023/12/10 11:14:25;;;;;;;0.20;0.20;;;5.90;99.90;;;;;;5031455;28;20413;-86
2023/12/10 11:16:58;;;;;;;0.20;0.20;;;5.90;99.90;;;;;;5027225;28;20487;-87
2023/12/10 11:19:24;;;;;;;0.20;0.20;;;6.00;99.90;;;;;;5030263;28;20462;-89
2023/12/10 11:21:50;;;;;;;0.20;0.20;;;6.00;99.90;;;;;;5016883;28;20429;-85
2023/12/10 11:24:16;;;;;;;0.20;0.20;;;6.00;99.90;;;;;;5007097;28;20693;-85
2023/12/10 11:26:42;;;;;;;0.20;0.20;;;6.00;99.90;;;;;;5032620;28;20419;-85
2023/12/10 11:29:08;;;;;;;0.20;0.20;;;6.00;99.90;;;;;;5030172;28;21015;-87
2023/12/10 11:31:35;;;;;;;0.20;0.20;;;5.90;99.90;;;;;;5022163;28;20212;-83
2023/12/10 11:34:00;;;;;;;0.20;0.20;;;5.90;99.90;;;;;;5033664;28;20642;-84
2023/12/10 11:36:26;;;;;;;0.20;0.20;;;5.90;99.90;;;;;;5015932;28;20442;-89
2023/12/10 11:38:52;;;;;;;0.20;0.20;;;6.00;99.90;;;;;;5009339;28;20586;-87
2023/12/10 11:41:18;;;;;;;0.20;0.20;;;5.90;99.90;;;;;;5029189;28;20666;-85
2023/12/10 11:43:45;;;;;;;0.20;0.20;;;5.90;99.90;;;;;;5031001;28;20187;-84
2023/12/10 11:46:31;;;;;;;0.20;0.20;;;5.90;99.90;;;;;;5009755;28;20911;-86
2023/12/10 11:48:56;;;;;;;0.20;0.20;;;5.90;99.90;;;;;;5023146;28;20507;-87
2023/12/10 11:51:22;;;;;;;0.20;0.20;;;5.90;99.90;;;;;;5025768;28;20488;-86
2023/12/10 11:53:48;;;;;;;0.20;0.20;;;6.00;99.90;;;;;;5028150;28;20195;-86
2023/12/10 11:56:14;;;;;;;0.20;0.20;;;6.00;99.90;;;;;;5009521;28;20743;-84
2023/12/10 11:58:43;;;;;;;0.20;0.20;;;6.00;99.90;;;;;;5020019;28;20859;-87
2023/12/10 12:01:09;;;;;;;0.20;0.20;;;6.00;99.90;;;;;;5021322;28;20454;-86
2023/12/10 12:03:35;;;;;;;0.20;0.20;;;6.00;99.90;;;;;;5008857;28;20438;-86
2023/12/10 12:06:00;;;;;;;0.20;0.20;;;6.00;99.90;;;;;;5026481;28;20187;-83
2023/12/10 12:08:27;;;;;;;0.20;0.20;;;6.10;99.90;;;;;;5028460;28;20441;-85
2023/12/10 12:10:54;;;;;;;0.20;0.20;;;6.10;99.90;;;;;;5019467;28;20265;-84
2023/12/10 12:13:19;;;;;;;0.20;0.20;;;6.10;99.90;;;;;;5024528;28;20450;-84
2023/12/10 12:15:49;;;;;;;0.20;0.20;;;6.10;99.90;;;;;;5028085;28;20509;-87
2023/12/10 12:18:15;;;;;;;0.20;0.20;;;6.10;99.90;;;;;;5011746;28;20203;-87
2023/12/10 12:20:41;;;;;;;0.20;0.20;;;6.20;99.90;;;;;;5029942;28;20483;-86
2023/12/10 12:23:06;;;;;;;0.20;0.20;;;6.20;99.90;;;;;;5025546;28;20307;-85
2023/12/10 12:25:35;;;;;;;0.20;0.20;;;6.20;99.90;;;;;;5028288;28;20643;-86
2023/12/10 12:28:07;;;;;;;0.20;0.20;;;6.20;99.90;;;;;;5025685;28;20695;-86
2023/12/10 12:30:36;;;;;;;0.20;0.20;;;6.20;99.90;;;;;;5028800;28;20469;-86
2023/12/10 12:33:02;;;;;;;0.20;0.20;;;6.20;99.90;;;;;;5038671;28;20487;-86
2023/12/10 12:35:29;;;;;;;0.20;0.20;;;6.20;99.90;;;;;;5021092;28;20448;-87
2023/12/10 12:37:54;;;;;;;0.20;0.20;;;6.20;99.90;;;;;;5018899;28;20691;-87
2023/12/10 12:40:20;;;;;;;0.20;0.20;;;6.20;99.90;;;;;;5011143;28;20499;-86
2023/12/10 12:42:49;;;;;;;0.20;0.20;;;6.20;99.90;;;;;;5031250;28;20928;-86
2023/12/10 12:45:16;;;;;;;0.20;0.20;;;6.20;99.90;;;;;;5040125;28;20178;-87
2023/12/10 12:47:43;;;;;;;0.20;0.20;;;6.20;99.90;;;;;;5039297;28;20521;-88
2023/12/10 12:50:09;;;;;;;0.20;0.20;;;6.20;99.90;;;;;;5014921;28;20471;-86
2023/12/10 12:52:34;;;;;;;0.20;0.20;;;6.20;99.90;;;;;;5020931;28;20489;-86